createdAt,value
2023-01-26T00:01:19.288Z,32.40
2023-01-26T00:03:46.193Z,32.50
2023-01-26T00:06:15.657Z,32.50
2023-01-26T00:08:48.015Z,32.50
2023-01-26T00:11:18.675Z,32.50
2023-01-26T00:13:45.941Z,32.50
2023-01-26T00:16:14.980Z,32.60
2023-01-26T00:18:42.867Z,32.50
2023-01-26T00:21:17.066Z,32.50
2023-01-26T00:23:44.213Z,32.50
2023-01-26T00:26:15.053Z,32.60
2023-01-26T00:28:41.884Z,32.50
2023-01-26T00:31:12.779Z,32.60
2023-01-26T00:33:39.597Z,32.60
2023-01-26T00:36:06.677Z,32.60
2023-01-26T00:38:33.462Z,32.60
2023-01-26T00:41:00.122Z,32.60
2023-01-26T00:43:26.758Z,32.70
2023-01-26T00:45:53.418Z,32.60
2023-01-26T00:48:21.144Z,32.60
2023-01-26T00:50:51.102Z,32.60
2023-01-26T00:53:17.766Z,32.70
2023-01-26T00:55:44.443Z,32.70
2023-01-26T00:58:11.269Z,32.60
2023-01-26T01:00:38.865Z,32.70
2023-01-26T01:03:06.501Z,32.70
2023-01-26T01:05:33.854Z,32.70
2023-01-26T01:08:00.609Z,32.60
2023-01-26T01:10:27.591Z,32.70
2023-01-26T01:12:55.040Z,32.70
2023-01-26T01:15:21.961Z,32.60
2023-01-26T01:17:48.633Z,32.70
2023-01-26T01:20:15.823Z,32.70
2023-01-26T01:22:42.447Z,32.70
2023-01-26T01:25:09.486Z,32.70
2023-01-26T01:27:36.110Z,32.60
2023-01-26T01:30:07.539Z,32.70
2023-01-26T01:32:36.015Z,32.60
2023-01-26T01:35:03.567Z,32.80
2023-01-26T01:37:31.118Z,32.60
2023-01-26T01:39:57.802Z,32.60
2023-01-26T01:42:24.993Z,32.60
2023-01-26T01:45:25.613Z,32.60
2023-01-26T01:47:55.698Z,32.60
2023-01-26T01:50:23.259Z,32.50
2023-01-26T01:52:50.246Z,32.60
2023-01-26T01:55:17.096Z,32.60
2023-01-26T01:57:58.865Z,32.60
2023-01-26T02:00:25.709Z,32.60
2023-01-26T02:03:11.060Z,32.60
2023-01-26T02:05:43.170Z,32.70
2023-01-26T02:08:11.297Z,32.60
2023-01-26T02:10:38.010Z,32.60
2023-01-26T02:13:06.311Z,32.60
2023-01-26T02:15:32.991Z,32.60
2023-01-26T02:18:03.400Z,32.60
2023-01-26T02:20:40.914Z,32.60
2023-01-26T02:23:50.046Z,32.70
2023-01-26T02:26:26.115Z,32.60
2023-01-26T02:28:53.635Z,32.60
2023-01-26T02:31:22.930Z,32.60
2023-01-26T02:33:49.688Z,32.60
2023-01-26T02:36:26.636Z,32.70
2023-01-26T02:39:34.576Z,32.70
2023-01-26T02:42:20.141Z,32.60
2023-01-26T02:44:46.842Z,32.60
2023-01-26T02:47:16.346Z,32.60
2023-01-26T02:49:50.528Z,32.70
2023-01-26T02:52:23.217Z,32.60
2023-01-26T02:55:08.854Z,32.60
2023-01-26T02:57:35.754Z,32.60
2023-01-26T03:00:04.702Z,32.60
2023-01-26T03:02:31.335Z,32.60
2023-01-26T03:04:57.946Z,32.60
2023-01-26T03:07:24.648Z,32.70
2023-01-26T03:09:51.279Z,32.60
2023-01-26T03:12:17.902Z,32.60
2023-01-26T03:14:44.499Z,32.60
2023-01-26T03:17:11.136Z,32.60
2023-01-26T03:19:56.296Z,32.60
2023-01-26T03:22:41.720Z,32.60
2023-01-26T03:25:28.181Z,32.60
2023-01-26T03:27:54.951Z,32.60
2023-01-26T03:30:21.692Z,32.60
2023-01-26T03:32:48.284Z,32.60
2023-01-26T03:35:15.984Z,32.60
2023-01-26T03:37:43.880Z,32.60
2023-01-26T03:40:31.403Z,32.60
2023-01-26T03:43:16.652Z,32.50
2023-01-26T03:46:01.899Z,32.50
2023-01-26T03:48:47.233Z,32.60
2023-01-26T03:51:32.583Z,32.50
2023-01-26T03:54:18.082Z,32.50
2023-01-26T03:56:44.746Z,32.50
2023-01-26T03:59:15.029Z,32.50
2023-01-26T04:02:04.258Z,32.60
2023-01-26T04:04:49.654Z,32.50
2023-01-26T04:07:35.285Z,32.60
2023-01-26T04:10:01.970Z,32.60
2023-01-26T04:12:28.551Z,32.70
2023-01-26T04:15:13.970Z,32.60
2023-01-26T04:17:59.505Z,32.60
2023-01-26T04:20:45.137Z,32.60
2023-01-26T04:23:18.989Z,32.60
2023-01-26T04:25:46.680Z,32.70
2023-01-26T04:28:13.283Z,32.70
2023-01-26T04:30:39.981Z,32.80
2023-01-26T04:33:06.747Z,32.90
2023-01-26T04:35:33.778Z,32.80
2023-01-26T04:38:00.352Z,32.90
2023-01-26T04:40:26.986Z,32.80
2023-01-26T04:42:53.591Z,32.90
2023-01-26T04:45:20.198Z,32.80
2023-01-26T04:47:46.889Z,32.80
2023-01-26T04:50:13.828Z,32.80
2023-01-26T04:52:40.710Z,32.90
2023-01-26T04:55:07.732Z,32.90
2023-01-26T04:57:34.331Z,32.80
2023-01-26T05:00:00.997Z,32.80
2023-01-26T05:02:27.662Z,32.80
2023-01-26T05:04:54.269Z,32.90
2023-01-26T05:07:20.907Z,32.90
2023-01-26T05:09:47.575Z,32.80
2023-01-26T05:12:32.807Z,32.90
2023-01-26T05:14:59.440Z,32.90
2023-01-26T05:17:26.189Z,32.90
2023-01-26T05:19:52.799Z,32.90
2023-01-26T05:22:19.398Z,33.00
2023-01-26T05:24:45.981Z,33.10
2023-01-26T05:27:21.689Z,33.10
2023-01-26T05:29:52.658Z,33.10
2023-01-26T05:32:19.697Z,33.20
2023-01-26T05:34:46.479Z,33.20
2023-01-26T05:37:15.074Z,33.30
2023-01-26T05:39:42.168Z,33.30
2023-01-26T05:42:09.287Z,33.40
2023-01-26T05:44:36.003Z,33.40
2023-01-26T05:47:02.708Z,33.50
2023-01-26T05:49:29.368Z,33.40
2023-01-26T05:51:56.672Z,33.50
2023-01-26T05:54:23.644Z,33.50
2023-01-26T05:56:50.573Z,33.50
2023-01-26T05:59:17.202Z,33.50
2023-01-26T06:01:43.778Z,33.50
2023-01-26T06:04:10.538Z,33.40
2023-01-26T06:06:37.179Z,33.30
2023-01-26T06:09:03.895Z,33.30
2023-01-26T06:11:32.476Z,33.40
2023-01-26T06:13:59.063Z,33.40
2023-01-26T06:16:25.731Z,33.40
2023-01-26T06:18:52.379Z,33.40
2023-01-26T06:21:19.171Z,33.50
2023-01-26T06:23:45.814Z,33.50
2023-01-26T06:26:12.443Z,33.50
2023-01-26T06:28:39.055Z,33.40
2023-01-26T06:31:07.925Z,33.50
2023-01-26T06:33:37.068Z,33.50
2023-01-26T06:36:05.527Z,33.60
2023-01-26T06:38:32.586Z,33.50
2023-01-26T06:41:03.891Z,33.50
2023-01-26T06:43:31.625Z,33.40
2023-01-26T06:45:59.009Z,33.40
2023-01-26T06:48:26.971Z,33.30
2023-01-26T06:50:56.307Z,33.30
2023-01-26T06:53:40.078Z,33.30
2023-01-26T06:56:06.724Z,33.30
2023-01-26T06:58:33.321Z,33.30
2023-01-26T07:01:00.537Z,33.30
2023-01-26T07:03:27.141Z,33.40
2023-01-26T07:05:53.729Z,33.40
2023-01-26T07:08:20.485Z,33.30
2023-01-26T07:10:47.092Z,33.40
2023-01-26T07:13:13.703Z,33.40
2023-01-26T07:15:40.287Z,33.40
2023-01-26T07:18:06.887Z,33.40
2023-01-26T07:20:33.527Z,33.40
2023-01-26T07:23:00.921Z,33.40
2023-01-26T07:25:27.802Z,33.40
2023-01-26T07:27:58.271Z,33.40
2023-01-26T07:30:25.138Z,33.40
2023-01-26T07:32:51.770Z,33.30
2023-01-26T07:35:18.487Z,33.30
2023-01-26T07:37:45.105Z,33.30
2023-01-26T07:40:12.523Z,33.20
2023-01-26T07:42:39.284Z,33.20
2023-01-26T07:45:06.611Z,33.20
2023-01-26T07:47:33.275Z,33.20
2023-01-26T07:49:59.854Z,33.20
2023-01-26T07:52:26.560Z,33.20
2023-01-26T07:54:53.163Z,33.20
2023-01-26T07:57:19.807Z,33.20
2023-01-26T07:59:46.397Z,33.30
2023-01-26T08:02:13.022Z,33.20
2023-01-26T08:04:39.594Z,33.20
2023-01-26T08:07:06.277Z,33.10
2023-01-26T08:09:33.038Z,33.10
2023-01-26T08:11:59.642Z,33.00
2023-01-26T08:14:35.440Z,33.10
2023-01-26T08:17:08.395Z,33.10
2023-01-26T08:19:35.000Z,33.00
2023-01-26T08:22:01.583Z,33.00
2023-01-26T08:24:28.171Z,32.90
2023-01-26T08:26:54.936Z,33.00
2023-01-26T08:29:21.516Z,33.00
2023-01-26T08:31:48.108Z,33.00
2023-01-26T08:34:14.865Z,32.90
2023-01-26T08:36:41.460Z,32.90
2023-01-26T08:39:08.155Z,32.90
2023-01-26T08:41:34.816Z,33.00
2023-01-26T08:44:01.429Z,32.90
2023-01-26T08:46:28.038Z,32.80
2023-01-26T08:48:54.628Z,32.80
2023-01-26T08:51:21.267Z,32.80
2023-01-26T08:53:47.898Z,32.90
2023-01-26T08:56:14.502Z,32.80
2023-01-26T08:58:41.567Z,32.70
2023-01-26T09:01:12.296Z,32.60
2023-01-26T09:03:39.200Z,33.30
2023-01-26T09:06:07.758Z,32.50
2023-01-26T09:08:34.664Z,32.50
2023-01-26T09:11:01.649Z,32.50
2023-01-26T09:13:28.366Z,32.60
2023-01-26T09:15:54.946Z,32.50
2023-01-26T09:18:21.599Z,32.50
2023-01-26T09:20:48.237Z,32.40
2023-01-26T09:23:16.808Z,32.50
2023-01-26T09:25:44.144Z,32.40
2023-01-26T09:28:10.891Z,32.40
2023-01-26T09:30:37.549Z,32.30
2023-01-26T09:33:05.752Z,32.40
2023-01-26T09:35:32.603Z,32.30
2023-01-26T09:37:59.273Z,32.30
2023-01-26T09:41:05.976Z,32.30
2023-01-26T09:43:44.675Z,32.20
2023-01-26T09:46:31.752Z,32.20
2023-01-26T09:49:13.379Z,32.10
2023-01-26T09:51:43.997Z,32.10
2023-01-26T09:54:48.821Z,32.20
2023-01-26T09:57:37.747Z,32.20
2023-01-26T10:00:21.098Z,32.10
2023-01-26T10:03:28.840Z,32.20
2023-01-26T10:06:01.475Z,32.10
2023-01-26T10:08:28.273Z,32.10
2023-01-26T10:11:07.122Z,32.10
2023-01-26T10:13:34.758Z,32.10
2023-01-26T10:16:06.292Z,32.10
2023-01-26T10:18:47.936Z,32.00
2023-01-26T10:21:15.748Z,32.00
2023-01-26T10:23:48.524Z,32.00
2023-01-26T10:26:19.908Z,31.90
2023-01-26T10:28:49.117Z,32.00
2023-01-26T10:31:18.658Z,31.90
2023-01-26T10:34:15.654Z,31.90
2023-01-26T10:36:45.148Z,31.80
2023-01-26T10:39:16.235Z,31.80
2023-01-26T10:42:02.955Z,31.80
2023-01-26T10:44:38.199Z,31.80
2023-01-26T10:47:13.450Z,32.00
2023-01-26T10:49:40.158Z,31.80
2023-01-26T10:52:11.391Z,32.00
2023-01-26T10:54:39.584Z,31.80
2023-01-26T10:57:22.597Z,31.80
2023-01-26T10:59:51.036Z,31.70
2023-01-26T11:02:20.905Z,31.80
2023-01-26T11:05:11.175Z,31.70
2023-01-26T11:07:40.051Z,31.60
2023-01-26T11:10:37.030Z,31.60
2023-01-26T11:13:21.215Z,31.60
2023-01-26T11:15:50.955Z,31.60
2023-01-26T11:18:30.856Z,31.60
2023-01-26T11:21:00.692Z,31.70
2023-01-26T11:23:34.458Z,31.50
2023-01-26T11:26:24.612Z,31.50
2023-01-26T11:29:00.137Z,31.50
2023-01-26T11:31:53.028Z,31.40
2023-01-26T11:34:31.503Z,31.60
2023-01-26T11:37:36.573Z,31.50
2023-01-26T11:40:25.109Z,31.50
2023-01-26T11:43:13.889Z,31.50
2023-01-26T11:46:11.473Z,31.40
2023-01-26T11:49:03.376Z,31.40
2023-01-26T11:51:40.711Z,31.40
2023-01-26T11:54:25.493Z,31.50
2023-01-26T11:57:16.067Z,31.40
2023-01-26T11:59:58.519Z,31.40
2023-01-26T12:02:31.186Z,31.50
2023-01-26T12:05:13.613Z,31.40
2023-01-26T12:07:59.286Z,31.50
2023-01-26T12:11:22.857Z,31.50
2023-01-26T12:14:23.876Z,31.50
2023-01-26T12:17:17.676Z,31.50
2023-01-26T12:20:00.082Z,31.50
2023-01-26T12:22:35.261Z,31.40
2023-01-26T12:25:27.093Z,31.50
2023-01-26T12:27:56.871Z,31.40
2023-01-26T12:30:34.050Z,31.50
2023-01-26T12:33:01.596Z,31.50
2023-01-26T12:35:45.078Z,31.50
2023-01-26T12:38:18.403Z,31.50
2023-01-26T12:41:06.416Z,31.50
2023-01-26T12:43:47.346Z,31.40
2023-01-26T12:46:15.547Z,31.40
2023-01-26T12:48:44.857Z,31.50
2023-01-26T12:51:20.033Z,31.50
2023-01-26T12:53:57.109Z,31.50
2023-01-26T12:56:50.332Z,31.50
2023-01-26T12:59:46.845Z,31.50
2023-01-26T13:02:21.749Z,31.60
2023-01-26T13:04:50.227Z,31.60
2023-01-26T13:07:29.549Z,31.60
2023-01-26T13:10:21.305Z,31.60
2023-01-26T13:12:53.398Z,31.70
2023-01-26T13:15:23.058Z,31.80
2023-01-26T13:17:59.499Z,31.80
2023-01-26T13:20:49.399Z,31.80
2023-01-26T13:23:28.059Z,31.90
2023-01-26T13:26:16.361Z,32.00
2023-01-26T13:28:44.137Z,32.00
2023-01-26T13:31:11.896Z,32.20
2023-01-26T13:33:40.253Z,32.10
2023-01-26T13:36:16.017Z,32.10
2023-01-26T13:38:47.847Z,32.10
2023-01-26T13:41:20.531Z,32.20
2023-01-26T13:43:54.387Z,32.30
2023-01-26T13:46:42.723Z,32.30
2023-01-26T13:49:34.026Z,32.30
2023-01-26T13:52:00.675Z,32.30
2023-01-26T13:54:27.781Z,32.30
2023-01-26T13:57:03.529Z,32.30
2023-01-26T13:59:30.676Z,32.30
2023-01-26T14:01:57.915Z,32.10
2023-01-26T14:04:29.710Z,32.00
2023-01-26T14:07:16.416Z,31.90
2023-01-26T14:09:49.986Z,32.00
2023-01-26T14:12:25.360Z,32.20
2023-01-26T14:14:56.799Z,32.10
2023-01-26T14:17:36.631Z,32.20
2023-01-26T14:20:31.334Z,32.20
2023-01-26T14:23:15.856Z,32.20
2023-01-26T14:26:05.746Z,32.20
2023-01-26T14:28:35.869Z,32.30
2023-01-26T14:31:23.649Z,32.30
2023-01-26T14:33:55.901Z,32.40
2023-01-26T14:36:23.384Z,32.30
2023-01-26T14:38:52.449Z,32.40
2023-01-26T14:41:26.776Z,32.40
2023-01-26T14:43:57.194Z,32.40
2023-01-26T14:46:33.860Z,32.30
2023-01-26T14:49:08.397Z,32.30
2023-01-26T14:51:36.788Z,32.40
2023-01-26T14:54:10.802Z,32.40
2023-01-26T14:56:39.891Z,32.30
2023-01-26T14:59:09.375Z,32.40
2023-01-26T15:01:36.314Z,32.30
2023-01-26T15:04:15.428Z,32.30
2023-01-26T15:06:42.142Z,32.20
2023-01-26T15:09:26.389Z,32.20
2023-01-26T15:12:14.188Z,32.20
2023-01-26T15:14:48.696Z,32.30
2023-01-26T15:17:38.614Z,32.30
2023-01-26T15:20:14.553Z,31.90
2023-01-26T15:22:48.372Z,31.90
2023-01-26T15:25:20.976Z,31.70
2023-01-26T15:27:53.754Z,31.50
2023-01-26T15:30:31.846Z,31.60
2023-01-26T15:32:58.855Z,31.40
2023-01-26T15:35:29.492Z,31.50
2023-01-26T15:38:14.271Z,31.40
2023-01-26T15:40:40.901Z,31.40
2023-01-26T15:43:20.903Z,31.40
2023-01-26T15:45:58.145Z,31.40
2023-01-26T15:48:26.748Z,31.40
2023-01-26T15:50:53.660Z,31.40
2023-01-26T15:53:22.073Z,31.50
2023-01-26T15:55:55.200Z,31.50
2023-01-26T15:58:23.216Z,32.20
2023-01-26T16:00:52.309Z,31.50
2023-01-26T16:03:21.023Z,31.50
2023-01-26T16:05:48.533Z,31.50
2023-01-26T16:08:16.468Z,31.50
2023-01-26T16:10:44.522Z,31.50
2023-01-26T16:13:14.016Z,31.50
2023-01-26T16:15:49.127Z,31.50
2023-01-26T16:18:16.323Z,31.40
2023-01-26T16:20:45.184Z,31.60
2023-01-26T16:23:32.221Z,31.60
2023-01-26T16:25:58.834Z,32.30
2023-01-26T16:28:25.496Z,31.70
2023-01-26T16:30:52.221Z,31.60
2023-01-26T16:33:24.547Z,31.60
2023-01-26T16:35:51.401Z,31.60
2023-01-26T16:38:18.167Z,31.70
2023-01-26T16:40:47.810Z,31.70
2023-01-26T16:43:23.692Z,31.60
2023-01-26T16:45:50.956Z,32.40
2023-01-26T16:48:17.871Z,31.70
2023-01-26T16:50:45.336Z,32.40
2023-01-26T16:53:20.149Z,31.80
2023-01-26T16:55:46.832Z,31.80
2023-01-26T16:58:13.438Z,31.80
2023-01-26T17:00:40.756Z,31.90
2023-01-26T17:03:12.934Z,31.90
2023-01-26T17:05:40.820Z,31.80
2023-01-26T17:08:08.008Z,31.80
2023-01-26T17:10:34.804Z,31.70
2023-01-26T17:13:01.590Z,31.70
2023-01-26T17:15:29.157Z,31.70
2023-01-26T17:17:55.965Z,31.70
2023-01-26T17:20:23.186Z,31.60
2023-01-26T17:22:50.523Z,31.60
2023-01-26T17:25:18.292Z,31.60
2023-01-26T17:27:46.454Z,31.60
2023-01-26T17:30:13.434Z,31.60
2023-01-26T17:32:42.311Z,31.60
2023-01-26T17:35:09.437Z,31.70
2023-01-26T17:37:37.500Z,31.70
2023-01-26T17:40:06.737Z,31.80
2023-01-26T17:42:34.929Z,31.90
2023-01-26T17:45:02.033Z,32.00
2023-01-26T17:47:28.713Z,31.90
2023-01-26T17:49:55.338Z,32.00
2023-01-26T17:52:22.002Z,32.00
2023-01-26T17:54:48.669Z,32.00
2023-01-26T17:57:15.516Z,32.10
2023-01-26T17:59:42.171Z,32.00
2023-01-26T18:02:11.348Z,32.10
2023-01-26T18:04:38.012Z,32.10
2023-01-26T18:07:04.859Z,32.10
2023-01-26T18:09:31.531Z,32.10
2023-01-26T18:11:58.184Z,32.20
2023-01-26T18:14:24.855Z,32.10
2023-01-26T18:16:51.560Z,32.20
2023-01-26T18:19:18.281Z,32.20
2023-01-26T18:21:44.970Z,32.20
2023-01-26T18:24:11.688Z,32.30
2023-01-26T18:26:38.722Z,32.30
2023-01-26T18:29:06.447Z,32.30
2023-01-26T18:31:35.816Z,32.30
2023-01-26T18:34:04.029Z,32.40
2023-01-26T18:36:31.059Z,32.40
2023-01-26T18:39:00.407Z,32.40
2023-01-26T18:41:30.290Z,32.40
2023-01-26T18:44:00.089Z,32.40
2023-01-26T18:46:28.307Z,32.30
2023-01-26T18:49:00.542Z,32.40
2023-01-26T18:51:31.857Z,32.30
2023-01-26T18:53:58.904Z,32.40
2023-01-26T18:56:25.968Z,32.30
2023-01-26T18:58:53.732Z,32.40
2023-01-26T19:01:21.352Z,32.30
2023-01-26T19:03:54.985Z,32.30
2023-01-26T19:06:23.040Z,32.30
2023-01-26T19:09:00.741Z,32.40
2023-01-26T19:11:30.781Z,32.30
2023-01-26T19:13:58.150Z,32.30
2023-01-26T19:16:25.888Z,32.30
2023-01-26T19:18:54.145Z,32.30
2023-01-26T19:21:24.113Z,32.30
2023-01-26T19:23:52.516Z,32.20
2023-01-26T19:26:25.454Z,32.20
2023-01-26T19:28:53.895Z,32.20
2023-01-26T19:31:21.213Z,32.20
2023-01-26T19:33:56.433Z,32.20
2023-01-26T19:36:24.000Z,32.20
2023-01-26T19:38:50.850Z,32.20
2023-01-26T19:41:18.478Z,32.20
2023-01-26T19:43:45.116Z,32.20
2023-01-26T19:46:13.948Z,32.20
2023-01-26T19:48:41.241Z,32.10
2023-01-26T19:51:12.031Z,32.90
2023-01-26T19:53:40.987Z,32.20
2023-01-26T19:56:16.354Z,32.20
2023-01-26T19:58:44.163Z,32.90
2023-01-26T20:01:12.462Z,32.20
2023-01-26T20:03:39.457Z,32.20
2023-01-26T20:06:13.206Z,32.30
2023-01-26T20:08:39.900Z,32.20
2023-01-26T20:11:08.314Z,32.20
2023-01-26T20:13:35.703Z,32.20
2023-01-26T20:16:03.885Z,32.20
2023-01-26T20:18:30.785Z,33.00
2023-01-26T20:21:00.377Z,32.30
2023-01-26T20:23:27.583Z,32.20
2023-01-26T20:26:05.870Z,32.20
2023-01-26T20:28:33.405Z,32.30
2023-01-26T20:31:12.219Z,32.20
2023-01-26T20:33:39.389Z,32.20
2023-01-26T20:36:08.464Z,32.20
2023-01-26T20:38:35.667Z,32.20
2023-01-26T20:41:15.117Z,32.30
2023-01-26T20:43:57.389Z,32.20
2023-01-26T20:46:27.969Z,32.20
2023-01-26T20:48:55.613Z,32.20
2023-01-26T20:51:24.557Z,32.40
2023-01-26T20:53:51.389Z,32.30
2023-01-26T20:56:21.190Z,32.20
2023-01-26T20:58:48.372Z,32.30
2023-01-26T21:01:17.381Z,32.30
2023-01-26T21:03:45.772Z,32.30
2023-01-26T21:06:15.278Z,32.30
2023-01-26T21:08:42.450Z,32.20
2023-01-26T21:11:13.170Z,32.30
2023-01-26T21:13:41.609Z,32.30
2023-01-26T21:16:10.526Z,32.30
2023-01-26T21:18:37.184Z,32.30
2023-01-26T21:21:07.044Z,32.30
2023-01-26T21:23:34.670Z,32.30
2023-01-26T21:26:05.426Z,32.30
2023-01-26T21:28:32.299Z,32.30
2023-01-26T21:31:16.435Z,32.30
2023-01-26T21:33:45.467Z,32.20
2023-01-26T21:36:15.136Z,32.30
2023-01-26T21:38:44.151Z,32.30
2023-01-26T21:41:40.400Z,32.40
2023-01-26T21:44:10.680Z,32.30
2023-01-26T21:46:37.690Z,32.30
2023-01-26T21:49:05.629Z,32.40
2023-01-26T21:51:50.759Z,32.30
2023-01-26T21:54:17.462Z,32.20
2023-01-26T21:56:44.247Z,32.30
2023-01-26T21:59:14.546Z,32.30
2023-01-26T22:01:47.048Z,32.80
2023-01-26T22:04:16.341Z,32.20
2023-01-26T22:06:43.450Z,32.20
2023-01-26T22:09:12.905Z,32.40
2023-01-26T22:11:39.878Z,32.30
2023-01-26T22:14:07.904Z,32.20
2023-01-26T22:16:34.595Z,32.20
2023-01-26T22:19:01.325Z,32.40
2023-01-26T22:21:28.020Z,32.20
2023-01-26T22:23:55.184Z,32.20
2023-01-26T22:26:23.204Z,32.30
2023-01-26T22:28:59.541Z,32.10
2023-01-26T22:31:30.071Z,32.10
2023-01-26T22:33:59.512Z,32.30
2023-01-26T22:36:26.810Z,32.20
2023-01-26T22:38:54.007Z,32.10
2023-01-26T22:41:23.904Z,32.10
2023-01-26T22:43:52.441Z,32.10
2023-01-26T22:46:20.819Z,32.20
2023-01-26T22:48:47.434Z,32.10
2023-01-26T22:51:18.162Z,32.20
2023-01-26T22:53:45.286Z,32.10
2023-01-26T22:56:12.345Z,32.10
2023-01-26T22:58:56.740Z,32.10
2023-01-26T23:01:26.203Z,32.10
2023-01-26T23:03:55.017Z,32.10
2023-01-26T23:06:22.394Z,32.10
2023-01-26T23:08:49.331Z,32.20
2023-01-26T23:11:22.477Z,32.20
2023-01-26T23:13:50.635Z,32.30
2023-01-26T23:16:17.744Z,32.20
2023-01-26T23:18:44.865Z,32.20
2023-01-26T23:21:12.186Z,32.30
2023-01-26T23:23:40.718Z,32.30
2023-01-26T23:26:07.829Z,32.20
2023-01-26T23:28:37.461Z,32.20
2023-01-26T23:31:04.952Z,32.30
2023-01-26T23:33:33.335Z,32.30
2023-01-26T23:36:00.427Z,32.30
2023-01-26T23:38:28.720Z,32.30
2023-01-26T23:40:55.973Z,32.40
2023-01-26T23:43:23.162Z,32.40
2023-01-26T23:45:50.591Z,32.50
2023-01-26T23:48:17.683Z,32.40
2023-01-26T23:50:44.652Z,32.40
2023-01-26T23:53:11.522Z,32.40
2023-01-26T23:55:42.848Z,32.50
2023-01-26T23:58:10.484Z,32.50
